createdAt,value
2022-08-27T00:00:43.919Z,14.20
2022-08-27T00:03:10.922Z,14.52
2022-08-27T00:05:38.202Z,14.25
2022-08-27T00:08:05.935Z,15.77
2022-08-27T00:10:34.047Z,14.02
2022-08-27T00:13:01.029Z,14.52
2022-08-27T00:15:28.291Z,15.25
2022-08-27T00:17:58.028Z,14.32
2022-08-27T00:20:26.397Z,14.98
2022-08-27T00:22:53.689Z,14.32
2022-08-27T00:25:20.882Z,14.70
2022-08-27T00:27:47.620Z,13.40
2022-08-27T00:30:16.457Z,13.80
2022-08-27T00:32:43.377Z,14.10
2022-08-27T00:35:10.314Z,14.57
2022-08-27T00:37:37.063Z,14.68
2022-08-27T00:40:06.786Z,13.48
2022-08-27T00:42:33.610Z,14.43
2022-08-27T00:45:00.538Z,14.20
2022-08-27T00:47:30.109Z,14.20
2022-08-27T00:49:59.347Z,14.55
2022-08-27T00:52:32.738Z,14.88
2022-08-27T00:55:08.025Z,15.23
2022-08-27T00:57:36.530Z,15.15
2022-08-27T01:00:06.269Z,14.70
2022-08-27T01:02:33.165Z,14.45
2022-08-27T01:05:05.148Z,13.15
2022-08-27T01:07:33.826Z,13.55
2022-08-27T01:10:01.994Z,13.13
2022-08-27T01:12:30.839Z,13.07
2022-08-27T01:14:57.651Z,12.98
2022-08-27T01:17:25.080Z,12.65
2022-08-27T01:19:55.821Z,12.38
2022-08-27T01:22:34.623Z,13.38
2022-08-27T01:25:13.948Z,13.38
2022-08-27T01:27:41.946Z,13.90
2022-08-27T01:30:10.496Z,14.05
2022-08-27T01:32:37.590Z,13.02
2022-08-27T01:35:08.911Z,13.98
2022-08-27T01:37:35.943Z,14.13
2022-08-27T01:40:03.547Z,13.77
2022-08-27T01:42:37.320Z,14.90
2022-08-27T01:45:12.823Z,14.73
2022-08-27T01:47:40.006Z,14.32
2022-08-27T01:50:10.080Z,14.88
2022-08-27T01:52:37.101Z,14.27
2022-08-27T01:55:06.180Z,14.75
2022-08-27T01:57:33.768Z,14.48
2022-08-27T02:00:00.554Z,16.08
2022-08-27T02:02:27.364Z,14.93
2022-08-27T02:04:54.092Z,15.43
2022-08-27T02:07:20.833Z,14.80
2022-08-27T02:09:47.565Z,15.35
2022-08-27T02:12:14.462Z,14.93
2022-08-27T02:14:41.184Z,15.23
2022-08-27T02:17:08.263Z,15.25
2022-08-27T02:19:35.233Z,15.40
2022-08-27T02:22:02.003Z,14.82
2022-08-27T02:24:29.273Z,15.35
2022-08-27T02:26:56.923Z,16.15
2022-08-27T02:29:24.947Z,17.00
2022-08-27T02:31:51.713Z,16.42
2022-08-27T02:34:18.649Z,17.08
2022-08-27T02:36:45.446Z,16.65
2022-08-27T02:39:12.218Z,17.27
2022-08-27T02:41:38.972Z,17.10
2022-08-27T02:44:10.722Z,17.67
2022-08-27T02:46:41.855Z,19.08
2022-08-27T02:49:09.636Z,18.77
2022-08-27T02:51:37.091Z,18.90
2022-08-27T02:54:03.933Z,18.17
2022-08-27T02:56:30.682Z,18.02
2022-08-27T02:58:58.134Z,19.15
2022-08-27T03:01:25.012Z,18.92
2022-08-27T03:03:51.869Z,18.50
2022-08-27T03:06:18.621Z,19.63
2022-08-27T03:08:52.783Z,18.00
2022-08-27T03:11:23.738Z,17.70
2022-08-27T03:13:50.743Z,18.63
2022-08-27T03:16:17.718Z,17.70
2022-08-27T03:18:44.553Z,17.95
2022-08-27T03:21:20.886Z,17.80
2022-08-27T03:23:48.855Z,17.17
2022-08-27T03:26:16.289Z,17.17
2022-08-27T03:28:43.074Z,15.80
2022-08-27T03:31:15.513Z,15.57
2022-08-27T03:33:43.553Z,16.30
2022-08-27T03:36:10.322Z,16.20
2022-08-27T03:38:38.114Z,15.52
2022-08-27T03:41:05.952Z,16.38
2022-08-27T03:43:33.051Z,16.55
2022-08-27T03:46:01.642Z,15.77
2022-08-27T03:48:30.549Z,15.35
2022-08-27T03:50:57.396Z,15.20
2022-08-27T03:53:24.149Z,16.33
2022-08-27T03:55:50.890Z,16.40
2022-08-27T03:58:18.115Z,16.15
2022-08-27T04:00:45.350Z,15.57
2022-08-27T04:03:14.091Z,16.70
2022-08-27T04:05:42.228Z,17.30
2022-08-27T04:08:13.606Z,17.48
2022-08-27T04:10:43.492Z,16.23
2022-08-27T04:13:10.499Z,16.50
2022-08-27T04:15:40.477Z,16.35
2022-08-27T04:18:08.186Z,16.25
2022-08-27T04:20:36.110Z,16.60
2022-08-27T04:23:04.142Z,16.10
2022-08-27T04:25:31.317Z,16.80
2022-08-27T04:27:58.326Z,17.58
2022-08-27T04:30:25.038Z,17.55
2022-08-27T04:32:51.763Z,16.67
2022-08-27T04:35:18.579Z,17.85
2022-08-27T04:37:45.303Z,17.65
2022-08-27T04:40:12.529Z,18.60
2022-08-27T04:42:39.279Z,18.70
2022-08-27T04:45:06.444Z,18.40
2022-08-27T04:47:33.361Z,17.05
2022-08-27T04:50:00.175Z,18.35
2022-08-27T04:52:28.457Z,17.00
2022-08-27T04:54:55.446Z,18.08
2022-08-27T04:57:22.187Z,17.95
2022-08-27T04:59:48.991Z,18.38
2022-08-27T05:02:16.785Z,18.27
2022-08-27T05:04:43.567Z,18.40
2022-08-27T05:07:10.588Z,18.05
2022-08-27T05:09:37.676Z,18.10
2022-08-27T05:12:04.804Z,17.48
2022-08-27T05:14:32.807Z,17.80
2022-08-27T05:17:00.097Z,17.85
2022-08-27T05:19:27.461Z,18.70
2022-08-27T05:21:54.440Z,18.90
2022-08-27T05:24:21.448Z,19.48
2022-08-27T05:26:48.795Z,18.92
2022-08-27T05:29:15.935Z,19.13
2022-08-27T05:31:43.576Z,18.85
2022-08-27T05:34:18.571Z,19.23
2022-08-27T05:36:51.962Z,19.50
2022-08-27T05:39:18.781Z,19.55
2022-08-27T05:41:45.587Z,19.02
2022-08-27T05:44:40.051Z,19.70
2022-08-27T05:46:59.259Z,19.15
2022-08-27T05:49:26.262Z,18.75
2022-08-27T05:51:52.985Z,17.33
2022-08-27T05:54:20.099Z,17.88
2022-08-27T05:56:48.030Z,17.65
2022-08-27T05:59:34.782Z,19.08
2022-08-27T06:02:02.253Z,18.17
2022-08-27T06:04:29.013Z,18.30
2022-08-27T06:06:55.757Z,17.33
2022-08-27T06:09:25.287Z,16.65
2022-08-27T06:11:57.396Z,15.57
2022-08-27T06:14:24.314Z,15.45
2022-08-27T06:16:51.198Z,15.68
2022-08-27T06:19:18.404Z,15.45
2022-08-27T06:21:45.567Z,15.23
2022-08-27T06:24:13.092Z,13.25
2022-08-27T06:26:42.464Z,12.55
2022-08-27T06:29:10.112Z,12.57
2022-08-27T06:31:37.507Z,12.02
2022-08-27T06:34:09.003Z,10.90
2022-08-27T06:36:38.635Z,10.90
2022-08-27T06:39:06.281Z,10.32
2022-08-27T06:41:33.533Z,10.43
2022-08-27T06:44:03.250Z,10.98
2022-08-27T06:46:30.044Z,10.80
2022-08-27T06:49:00.157Z,9.88
2022-08-27T06:51:33.094Z,10.32
2022-08-27T06:54:03.510Z,9.88
2022-08-27T06:56:31.278Z,10.90
2022-08-27T06:59:00.968Z,8.73
2022-08-27T07:01:30.750Z,9.40
2022-08-27T07:03:59.907Z,9.98
2022-08-27T07:06:29.089Z,9.45
2022-08-27T07:08:57.188Z,10.07
2022-08-27T07:11:24.052Z,10.48
2022-08-27T07:13:51.552Z,9.95
2022-08-27T07:16:22.190Z,11.32
2022-08-27T07:18:55.787Z,9.90
2022-08-27T07:21:22.930Z,10.60
2022-08-27T07:23:52.226Z,10.70
2022-08-27T07:26:20.156Z,11.35
2022-08-27T07:28:47.302Z,10.30
2022-08-27T07:31:19.550Z,10.43
2022-08-27T07:33:52.674Z,10.35
2022-08-27T07:36:21.596Z,10.18
2022-08-27T07:39:00.673Z,10.85
2022-08-27T07:41:32.626Z,11.65
2022-08-27T07:44:18.993Z,11.23
2022-08-27T07:46:49.598Z,10.90
2022-08-27T07:49:17.572Z,10.88
2022-08-27T07:51:44.645Z,11.18
2022-08-27T07:54:11.423Z,11.20
2022-08-27T07:56:38.294Z,10.02
2022-08-27T07:59:05.010Z,10.88
2022-08-27T08:01:31.918Z,10.35
2022-08-27T08:03:59.168Z,10.35
2022-08-27T08:06:26.597Z,9.93
2022-08-27T08:08:53.399Z,10.73
2022-08-27T08:11:20.629Z,9.85
2022-08-27T08:13:47.686Z,10.35
2022-08-27T08:16:14.915Z,10.23
2022-08-27T08:18:41.733Z,10.30
2022-08-27T08:21:11.957Z,10.10
2022-08-27T08:23:38.760Z,10.27
2022-08-27T08:26:06.753Z,10.23
2022-08-27T08:28:34.049Z,10.60
2022-08-27T08:31:01.646Z,10.45
2022-08-27T08:33:29.039Z,10.90
2022-08-27T08:36:03.182Z,11.02
2022-08-27T08:38:30.397Z,10.70
2022-08-27T08:40:57.100Z,10.60
2022-08-27T08:43:29.284Z,10.93
2022-08-27T08:45:59.670Z,10.98
2022-08-27T08:48:29.805Z,11.75
2022-08-27T08:51:10.916Z,11.60
2022-08-27T08:53:58.636Z,12.48
2022-08-27T08:56:57.276Z,12.45
2022-08-27T08:59:34.738Z,13.18
2022-08-27T09:02:01.796Z,12.93
2022-08-27T09:04:29.976Z,13.40
2022-08-27T09:07:17.941Z,13.88
2022-08-27T09:10:07.097Z,12.15
2022-08-27T09:12:33.934Z,13.50
2022-08-27T09:15:17.287Z,12.70
2022-08-27T09:17:44.040Z,12.48
2022-08-27T09:20:15.348Z,12.18
2022-08-27T09:23:11.088Z,12.65
2022-08-27T09:25:40.798Z,11.63
2022-08-27T09:28:32.316Z,12.27
2022-08-27T09:31:08.021Z,12.20
2022-08-27T09:33:44.607Z,12.40
2022-08-27T09:36:23.749Z,12.07
2022-08-27T09:38:59.210Z,14.23
2022-08-27T09:41:29.480Z,13.27
2022-08-27T09:44:03.715Z,12.18
2022-08-27T09:46:31.380Z,13.13
2022-08-27T09:48:58.221Z,12.02
2022-08-27T09:51:28.642Z,11.68
2022-08-27T09:53:57.856Z,13.38
2022-08-27T09:56:32.045Z,12.73
2022-08-27T09:59:07.989Z,12.60
2022-08-27T10:01:57.893Z,12.18
2022-08-27T10:04:37.962Z,12.20
2022-08-27T10:07:26.297Z,12.90
2022-08-27T10:10:18.120Z,12.02
2022-08-27T10:12:54.270Z,13.18
2022-08-27T10:15:21.652Z,12.48
2022-08-27T10:18:04.201Z,11.73
2022-08-27T10:20:55.471Z,11.10
2022-08-27T10:23:44.530Z,11.20
2022-08-27T10:26:39.203Z,10.35
2022-08-27T10:29:29.106Z,11.27
2022-08-27T10:32:11.152Z,10.18
2022-08-27T10:35:13.873Z,10.65
2022-08-27T10:38:02.054Z,10.10
2022-08-27T10:40:37.272Z,9.90
2022-08-27T10:43:33.722Z,10.52
2022-08-27T10:46:32.997Z,10.45
2022-08-27T10:49:33.034Z,9.20
2022-08-27T10:52:22.898Z,10.23
2022-08-27T10:55:06.940Z,10.68
2022-08-27T10:57:58.895Z,11.15
2022-08-27T11:00:44.030Z,8.35
2022-08-27T11:03:14.650Z,8.80
2022-08-27T11:05:45.415Z,8.75
2022-08-27T11:08:28.044Z,8.75
2022-08-27T11:11:04.594Z,7.85
2022-08-27T11:13:48.101Z,7.75
2022-08-27T11:16:19.327Z,7.00
2022-08-27T11:18:52.207Z,7.35
2022-08-27T11:21:40.458Z,7.38
2022-08-27T11:24:33.167Z,6.30
2022-08-27T11:27:06.713Z,5.90
2022-08-27T11:29:37.696Z,5.97
2022-08-27T11:32:19.844Z,6.15
2022-08-27T11:35:00.575Z,6.47
2022-08-27T11:37:50.628Z,6.00
2022-08-27T11:40:39.232Z,6.07
2022-08-27T11:43:11.390Z,6.35
2022-08-27T11:45:39.643Z,6.43
2022-08-27T11:48:23.948Z,6.88
2022-08-27T11:51:00.824Z,6.43
2022-08-27T11:53:33.490Z,6.88
2022-08-27T11:56:34.911Z,6.10
2022-08-27T11:59:22.489Z,6.38
2022-08-27T12:01:52.544Z,7.10
2022-08-27T12:04:31.572Z,6.75
2022-08-27T12:07:27.334Z,6.00
2022-08-27T12:09:57.840Z,6.28
2022-08-27T12:12:58.486Z,5.65
2022-08-27T12:15:50.366Z,6.38
2022-08-27T12:18:41.880Z,5.90
2022-08-27T12:21:39.784Z,6.53
2022-08-27T12:24:30.869Z,5.70
2022-08-27T12:27:14.633Z,5.78
2022-08-27T12:29:56.246Z,6.07
2022-08-27T12:32:52.103Z,5.32
2022-08-27T12:35:19.363Z,5.63
2022-08-27T12:37:57.932Z,5.55
2022-08-27T12:40:31.071Z,5.18
2022-08-27T12:43:12.023Z,5.35
2022-08-27T12:45:49.539Z,5.53
2022-08-27T12:48:22.170Z,5.93
2022-08-27T12:50:54.190Z,5.28
2022-08-27T12:53:43.705Z,5.20
2022-08-27T12:56:29.473Z,4.40
2022-08-27T12:59:12.679Z,4.15
2022-08-27T13:01:53.906Z,3.92
2022-08-27T13:04:26.720Z,4.13
2022-08-27T13:06:53.542Z,3.90
2022-08-27T13:09:29.780Z,3.58
2022-08-27T13:11:57.209Z,3.42
2022-08-27T13:14:25.922Z,3.53
2022-08-27T13:17:00.705Z,3.90
2022-08-27T13:19:31.211Z,4.03
2022-08-27T13:21:59.359Z,3.80
2022-08-27T13:24:44.090Z,3.45
2022-08-27T13:27:11.561Z,4.40
2022-08-27T13:29:39.030Z,4.05
2022-08-27T13:32:06.093Z,3.88
2022-08-27T13:34:36.258Z,3.80
2022-08-27T13:37:21.347Z,3.90
2022-08-27T13:39:56.071Z,4.07
2022-08-27T13:42:25.253Z,3.83
2022-08-27T13:44:54.491Z,4.00
2022-08-27T13:47:26.779Z,3.65
2022-08-27T13:50:14.562Z,3.45
2022-08-27T13:53:01.538Z,4.15
2022-08-27T13:55:28.858Z,4.20
2022-08-27T13:57:55.762Z,3.67
2022-08-27T14:00:29.932Z,3.88
2022-08-27T14:02:58.918Z,3.95
2022-08-27T14:05:25.672Z,4.28
2022-08-27T14:08:11.863Z,4.15
2022-08-27T14:10:42.073Z,4.03
2022-08-27T14:13:21.642Z,4.50
2022-08-27T14:15:59.649Z,4.45
2022-08-27T14:18:57.471Z,4.60
2022-08-27T14:21:20.992Z,4.65
2022-08-27T14:23:48.082Z,4.50
2022-08-27T14:26:17.502Z,4.75
2022-08-27T14:28:45.161Z,5.43
2022-08-27T14:31:12.334Z,4.80
2022-08-27T14:33:39.486Z,4.82
2022-08-27T14:36:06.826Z,5.30
2022-08-27T14:38:34.695Z,5.13
2022-08-27T14:41:01.530Z,5.18
2022-08-27T14:43:28.406Z,5.20
2022-08-27T14:45:55.853Z,5.15
2022-08-27T14:48:28.920Z,5.30
2022-08-27T14:50:57.973Z,5.80
2022-08-27T14:53:25.521Z,5.63
2022-08-27T14:55:52.826Z,6.07
2022-08-27T14:58:20.521Z,6.28
2022-08-27T15:00:47.694Z,5.60
2022-08-27T15:03:14.562Z,5.32
2022-08-27T15:05:41.347Z,5.22
2022-08-27T15:08:13.302Z,5.55
2022-08-27T15:10:40.639Z,5.25
2022-08-27T15:13:09.626Z,5.07
2022-08-27T15:15:36.681Z,5.00
2022-08-27T15:18:03.653Z,5.60
2022-08-27T15:20:30.763Z,5.00
2022-08-27T15:22:57.549Z,5.55
2022-08-27T15:25:25.030Z,4.97
2022-08-27T15:27:52.559Z,4.68
2022-08-27T15:30:25.597Z,4.97
2022-08-27T15:32:52.788Z,4.65
2022-08-27T15:35:25.389Z,4.40
2022-08-27T15:37:52.679Z,4.88
2022-08-27T15:40:20.359Z,4.53
2022-08-27T15:42:50.749Z,4.72
2022-08-27T15:45:17.533Z,5.18
2022-08-27T15:47:44.350Z,4.85
2022-08-27T15:50:11.449Z,4.78
2022-08-27T15:52:40.954Z,5.20
2022-08-27T15:55:22.595Z,4.90
2022-08-27T15:57:49.949Z,5.10
2022-08-27T16:00:17.821Z,4.32
2022-08-27T16:02:45.289Z,3.47
2022-08-27T16:05:13.957Z,3.30
2022-08-27T16:07:40.885Z,3.08
2022-08-27T16:10:11.527Z,2.88
2022-08-27T16:12:38.330Z,2.50
2022-08-27T16:15:05.980Z,2.60
2022-08-27T16:17:33.079Z,2.30
2022-08-27T16:20:00.951Z,3.13
2022-08-27T16:22:28.651Z,2.60
2022-08-27T16:24:55.654Z,2.03
2022-08-27T16:27:22.613Z,1.85
2022-08-27T16:29:49.501Z,2.00
2022-08-27T16:32:18.884Z,1.90
2022-08-27T16:34:52.551Z,2.38
2022-08-27T16:37:24.492Z,2.15
2022-08-27T16:39:51.365Z,1.98
2022-08-27T16:42:18.278Z,2.03
2022-08-27T16:44:45.028Z,1.88
2022-08-27T16:47:11.883Z,2.30
2022-08-27T16:49:57.297Z,1.67
2022-08-27T16:52:24.155Z,2.10
2022-08-27T16:54:52.060Z,1.90
2022-08-27T16:57:18.795Z,2.42
2022-08-27T16:59:45.921Z,2.20
2022-08-27T17:02:30.438Z,2.22
2022-08-27T17:05:12.171Z,2.00
2022-08-27T17:07:44.615Z,2.30
2022-08-27T17:10:19.422Z,2.17
2022-08-27T17:12:47.298Z,2.28
2022-08-27T17:15:16.236Z,2.35
2022-08-27T17:17:43.112Z,2.47
2022-08-27T17:20:10.606Z,2.05
2022-08-27T17:22:37.800Z,2.13
2022-08-27T17:25:05.466Z,2.53
2022-08-27T17:27:32.291Z,2.53
2022-08-27T17:29:59.046Z,2.55
2022-08-27T17:32:26.429Z,2.25
2022-08-27T17:34:53.369Z,2.35
2022-08-27T17:37:20.169Z,2.58
2022-08-27T17:39:46.934Z,2.72
2022-08-27T17:42:13.831Z,2.58
2022-08-27T17:44:40.511Z,2.92
2022-08-27T17:47:08.668Z,2.70
2022-08-27T17:49:36.275Z,2.70
2022-08-27T17:52:11.321Z,2.60
2022-08-27T17:54:42.475Z,2.80
2022-08-27T17:57:19.534Z,2.80
2022-08-27T17:59:47.405Z,2.92
2022-08-27T18:02:23.161Z,2.75
2022-08-27T18:04:50.590Z,2.60
2022-08-27T18:07:19.323Z,2.72
2022-08-27T18:09:48.556Z,3.00
2022-08-27T18:12:18.708Z,2.80
2022-08-27T18:14:46.416Z,3.05
2022-08-27T18:17:13.820Z,2.70
2022-08-27T18:19:45.570Z,2.38
2022-08-27T18:22:12.690Z,2.70
2022-08-27T18:24:39.824Z,3.17
2022-08-27T18:27:06.622Z,3.22
2022-08-27T18:29:33.518Z,2.90
2022-08-27T18:32:00.275Z,2.50
2022-08-27T18:34:27.863Z,2.50
2022-08-27T18:36:54.750Z,2.40
2022-08-27T18:39:21.482Z,2.33
2022-08-27T18:41:52.947Z,2.42
2022-08-27T18:44:19.704Z,2.70
2022-08-27T18:46:46.831Z,2.05
2022-08-27T18:49:13.745Z,2.20
2022-08-27T18:51:43.698Z,3.10
2022-08-27T18:54:10.661Z,3.13
2022-08-27T18:56:37.590Z,2.45
2022-08-27T18:59:06.977Z,2.60
2022-08-27T19:01:33.885Z,2.65
2022-08-27T19:04:00.927Z,3.10
2022-08-27T19:06:27.768Z,2.80
2022-08-27T19:08:54.691Z,2.63
2022-08-27T19:11:21.434Z,2.63
2022-08-27T19:13:50.579Z,2.50
2022-08-27T19:16:22.043Z,2.92
2022-08-27T19:18:48.889Z,2.78
2022-08-27T19:21:15.765Z,3.03
2022-08-27T19:23:42.539Z,2.95
2022-08-27T19:26:19.235Z,2.80
2022-08-27T19:28:46.045Z,2.75
2022-08-27T19:31:14.430Z,2.30
2022-08-27T19:33:42.511Z,2.50
2022-08-27T19:36:15.471Z,2.45
2022-08-27T19:38:43.240Z,2.83
2022-08-27T19:41:10.331Z,2.70
2022-08-27T19:43:37.067Z,2.80
2022-08-27T19:46:05.050Z,3.05
2022-08-27T19:48:34.364Z,3.47
2022-08-27T19:51:01.238Z,2.97
2022-08-27T19:53:28.167Z,2.80
2022-08-27T19:55:55.044Z,2.53
2022-08-27T19:58:21.865Z,2.85
2022-08-27T20:00:48.716Z,3.47
2022-08-27T20:03:15.692Z,3.78
2022-08-27T20:05:43.631Z,3.67
2022-08-27T20:08:10.734Z,3.10
2022-08-27T20:10:40.382Z,2.88
2022-08-27T20:13:07.551Z,2.78
2022-08-27T20:15:35.127Z,2.63
2022-08-27T20:18:05.481Z,2.90
2022-08-27T20:20:33.313Z,2.85
2022-08-27T20:23:02.884Z,2.92
2022-08-27T20:25:29.915Z,3.30
2022-08-27T20:27:56.725Z,3.63
2022-08-27T20:30:26.150Z,3.83
2022-08-27T20:32:53.016Z,3.00
2022-08-27T20:35:20.393Z,2.88
2022-08-27T20:37:47.271Z,2.72
2022-08-27T20:40:21.028Z,2.85
2022-08-27T20:42:47.772Z,2.65
2022-08-27T20:45:14.954Z,3.42
2022-08-27T20:47:43.354Z,3.08
2022-08-27T20:50:11.953Z,3.42
2022-08-27T20:52:39.591Z,3.35
2022-08-27T20:55:07.349Z,3.38
2022-08-27T20:57:34.086Z,4.00
2022-08-27T21:00:19.993Z,3.65
2022-08-27T21:02:47.315Z,3.40
2022-08-27T21:05:16.558Z,3.53
2022-08-27T21:07:44.668Z,3.58
2022-08-27T21:10:11.700Z,4.38
2022-08-27T21:12:39.596Z,4.25
2022-08-27T21:15:07.432Z,4.22
2022-08-27T21:17:34.687Z,4.10
2022-08-27T21:20:01.782Z,4.25
2022-08-27T21:22:28.659Z,5.35
2022-08-27T21:24:55.441Z,4.80
2022-08-27T21:27:22.215Z,5.82
2022-08-27T21:29:49.107Z,5.93
2022-08-27T21:32:16.911Z,5.88
2022-08-27T21:34:44.237Z,6.53
2022-08-27T21:37:13.792Z,6.93
2022-08-27T21:39:41.538Z,5.95
2022-08-27T21:42:08.643Z,6.30
2022-08-27T21:44:35.611Z,6.70
2022-08-27T21:47:03.955Z,6.93
2022-08-27T21:49:32.658Z,6.50
2022-08-27T21:52:03.659Z,6.68
2022-08-27T21:54:36.735Z,6.82
2022-08-27T21:57:04.942Z,7.10
2022-08-27T21:59:33.529Z,7.47
2022-08-27T22:02:01.303Z,7.07
2022-08-27T22:04:30.880Z,6.63
2022-08-27T22:06:59.093Z,7.30
2022-08-27T22:09:26.462Z,6.50
2022-08-27T22:11:53.287Z,7.85
2022-08-27T22:14:20.181Z,7.30
2022-08-27T22:16:46.890Z,7.45
2022-08-27T22:19:13.680Z,6.78
2022-08-27T22:21:40.399Z,7.40
2022-08-27T22:24:07.427Z,7.30
2022-08-27T22:26:34.182Z,7.18
2022-08-27T22:29:03.266Z,7.57
2022-08-27T22:31:32.615Z,6.97
2022-08-27T22:34:00.788Z,6.80
2022-08-27T22:36:27.795Z,7.25
2022-08-27T22:38:54.649Z,6.40
2022-08-27T22:41:26.679Z,6.70
2022-08-27T22:43:57.884Z,6.70
2022-08-27T22:46:24.841Z,6.95
2022-08-27T22:48:51.612Z,6.30
2022-08-27T22:51:18.423Z,6.75
2022-08-27T22:53:45.174Z,6.30
2022-08-27T22:56:12.516Z,6.40
2022-08-27T22:58:40.747Z,6.40
2022-08-27T23:01:13.608Z,5.65
2022-08-27T23:03:40.500Z,5.80
2022-08-27T23:06:07.265Z,5.63
2022-08-27T23:08:34.090Z,5.85
2022-08-27T23:11:02.546Z,5.63
2022-08-27T23:13:31.645Z,5.50
2022-08-27T23:15:59.582Z,5.22
2022-08-27T23:18:26.675Z,5.45
2022-08-27T23:20:53.389Z,4.78
2022-08-27T23:23:20.206Z,5.13
2022-08-27T23:26:05.898Z,5.50
2022-08-27T23:28:32.673Z,5.05
2022-08-27T23:30:59.457Z,5.55
2022-08-27T23:33:26.523Z,4.93
2022-08-27T23:35:53.315Z,4.97
2022-08-27T23:38:21.382Z,4.85
2022-08-27T23:40:49.781Z,5.13
2022-08-27T23:43:17.569Z,5.03
2022-08-27T23:45:44.333Z,5.20
2022-08-27T23:48:11.621Z,5.25
2022-08-27T23:50:39.608Z,5.05
2022-08-27T23:53:07.576Z,5.35
2022-08-27T23:55:34.888Z,5.43
2022-08-27T23:58:02.702Z,5.15
